createdAt,value
2023-01-12T00:03:14.226Z,11.20
2023-01-12T00:08:17.028Z,12.70
2023-01-12T00:13:19.691Z,13.60
2023-01-12T00:18:22.413Z,11.20
2023-01-12T00:23:26.274Z,12.20
2023-01-12T00:28:29.056Z,13.30
2023-01-12T00:33:31.758Z,14.20
2023-01-12T00:38:36.498Z,14.40
2023-01-12T00:43:57.943Z,9.40
2023-01-12T00:49:00.652Z,13.40
2023-01-12T00:54:04.903Z,12.60
2023-01-12T00:59:07.749Z,15.50
2023-01-12T01:04:10.464Z,14.90
2023-01-12T01:09:13.948Z,15.10
2023-01-12T01:14:16.653Z,15.70
2023-01-12T01:19:19.491Z,12.50
2023-01-12T01:24:22.233Z,12.30
2023-01-12T01:29:24.949Z,16.50
2023-01-12T01:34:27.761Z,17.90
2023-01-12T01:39:30.527Z,15.30
2023-01-12T01:44:33.200Z,10.20
2023-01-12T01:49:48.409Z,12.20
2023-01-12T01:55:07.584Z,14.90
2023-01-12T02:00:12.297Z,13.50
2023-01-12T02:05:20.154Z,15.30
2023-01-12T02:10:23.153Z,16.10
2023-01-12T02:15:47.733Z,15.10
2023-01-12T02:21:06.556Z,13.20
2023-01-12T02:26:37.066Z,12.90
2023-01-12T02:31:48.906Z,17.10
2023-01-12T02:37:27.219Z,12.00
2023-01-12T02:42:58.202Z,16.20
2023-01-12T02:48:18.513Z,11.80
2023-01-12T02:53:45.187Z,16.00
2023-01-12T02:58:54.634Z,16.60
2023-01-12T03:04:02.650Z,16.60
2023-01-12T03:09:05.659Z,15.00
2023-01-12T03:14:11.352Z,15.20
2023-01-12T03:19:29.600Z,15.50
2023-01-12T03:24:37.738Z,16.10
2023-01-12T03:29:47.203Z,15.80
2023-01-12T03:34:50.442Z,16.00
2023-01-12T03:40:05.175Z,16.10
2023-01-12T03:45:08.816Z,16.40
2023-01-12T03:50:16.699Z,15.20
2023-01-12T03:55:24.014Z,9.30
2023-01-12T04:00:29.140Z,15.50
2023-01-12T04:05:31.984Z,11.70
2023-01-12T04:10:35.306Z,12.50
2023-01-12T04:15:42.617Z,12.90
2023-01-12T04:20:47.152Z,15.10
2023-01-12T04:25:49.960Z,15.30
2023-01-12T04:30:52.753Z,11.90
2023-01-12T04:35:55.438Z,13.90
2023-01-12T04:40:58.200Z,12.50
2023-01-12T04:46:09.730Z,8.60
2023-01-12T04:51:13.179Z,11.50
2023-01-12T04:56:15.980Z,10.10
2023-01-12T05:01:20.259Z,12.30
2023-01-12T05:06:23.857Z,12.20
2023-01-12T05:11:28.728Z,13.00
2023-01-12T05:16:32.104Z,11.90
2023-01-12T05:21:34.906Z,12.10
2023-01-12T05:26:37.629Z,12.70
2023-01-12T05:31:40.403Z,12.10
2023-01-12T05:36:43.100Z,12.60
2023-01-12T05:42:06.085Z,11.10
2023-01-12T05:47:08.811Z,12.20
2023-01-12T05:52:11.576Z,12.20
2023-01-12T05:57:14.272Z,13.50
2023-01-12T06:02:18.082Z,9.90
2023-01-12T06:07:21.069Z,10.90
2023-01-12T06:12:42.650Z,9.30
2023-01-12T06:17:45.459Z,12.50
2023-01-12T06:22:48.260Z,9.40
2023-01-12T06:27:51.051Z,9.80
2023-01-12T06:32:53.856Z,12.30
2023-01-12T06:37:57.410Z,13.10
2023-01-12T06:43:00.221Z,10.10
2023-01-12T06:48:03.010Z,12.00
2023-01-12T06:53:07.319Z,9.30
2023-01-12T06:58:10.017Z,10.00
2023-01-12T07:03:17.945Z,11.30
2023-01-12T07:08:21.270Z,11.70
2023-01-12T07:13:24.060Z,10.30
2023-01-12T07:18:28.382Z,11.40
2023-01-12T07:23:31.400Z,7.40
2023-01-12T07:28:34.608Z,10.60
2023-01-12T07:33:38.680Z,11.30
2023-01-12T07:38:43.043Z,11.60
2023-01-12T07:43:45.881Z,8.60
2023-01-12T07:48:48.683Z,12.00
2023-01-12T07:53:51.788Z,11.20
2023-01-12T07:58:54.571Z,12.40
2023-01-12T08:03:57.704Z,11.10
2023-01-12T08:09:00.897Z,11.40
2023-01-12T08:14:06.010Z,10.70
2023-01-12T08:19:16.455Z,11.40
2023-01-12T08:24:24.684Z,11.00
2023-01-12T08:29:36.399Z,8.60
2023-01-12T08:34:42.177Z,8.00
2023-01-12T08:39:46.221Z,7.70
2023-01-12T08:44:49.096Z,8.70
2023-01-12T08:49:51.760Z,9.40
2023-01-12T08:54:54.789Z,8.60
2023-01-12T08:59:57.945Z,8.20
2023-01-12T09:05:00.720Z,9.00
2023-01-12T09:10:06.589Z,8.10
2023-01-12T09:15:10.399Z,8.70
2023-01-12T09:20:13.304Z,6.30
2023-01-12T09:25:16.225Z,7.70
2023-01-12T09:30:19.126Z,8.90
2023-01-12T09:35:22.232Z,8.80
2023-01-12T09:40:24.963Z,8.10
2023-01-12T09:45:46.756Z,7.40
2023-01-12T09:51:03.527Z,7.60
2023-01-12T09:56:24.963Z,7.80
2023-01-12T10:01:30.153Z,7.70
2023-01-12T10:06:35.978Z,8.50
2023-01-12T10:11:56.981Z,8.20
2023-01-12T10:17:38.664Z,7.10
2023-01-12T10:22:49.409Z,6.30
2023-01-12T10:27:56.939Z,7.30
2023-01-12T10:33:09.143Z,6.80
2023-01-12T10:38:26.391Z,7.00
2023-01-12T10:43:34.967Z,6.60
2023-01-12T10:48:40.225Z,4.80
2023-01-12T10:53:47.254Z,5.50
2023-01-12T10:59:01.356Z,4.80
2023-01-12T11:04:06.294Z,5.50
2023-01-12T11:09:24.162Z,5.40
2023-01-12T11:14:40.052Z,5.00
2023-01-12T11:19:44.468Z,6.50
2023-01-12T11:24:57.246Z,5.60
2023-01-12T11:30:08.505Z,4.90
2023-01-12T11:35:17.491Z,5.70
2023-01-12T11:40:46.917Z,5.40
2023-01-12T11:45:58.319Z,4.60
2023-01-12T11:51:01.842Z,4.10
2023-01-12T11:56:10.501Z,5.10
2023-01-12T12:01:20.275Z,5.40
2023-01-12T12:06:59.268Z,4.40
2023-01-12T12:12:31.159Z,3.80
2023-01-12T12:17:52.438Z,4.70
2023-01-12T12:23:04.071Z,4.80
2023-01-12T12:28:21.864Z,3.60
2023-01-12T12:33:50.323Z,4.30
2023-01-12T12:39:10.793Z,4.60
2023-01-12T12:44:41.245Z,3.40
2023-01-12T12:49:44.369Z,3.80
2023-01-12T12:54:48.098Z,5.90
2023-01-12T13:00:02.792Z,5.00
2023-01-12T13:05:10.281Z,3.50
2023-01-12T13:10:22.640Z,3.90
2023-01-12T13:15:30.218Z,3.20
2023-01-12T13:20:53.886Z,4.10
2023-01-12T13:25:57.806Z,5.20
2023-01-12T13:31:02.636Z,4.50
2023-01-12T13:36:10.226Z,4.80
2023-01-12T13:41:14.043Z,4.40
2023-01-12T13:46:47.698Z,5.80
2023-01-12T13:51:57.409Z,4.20
2023-01-12T14:02:18.264Z,4.20
2023-01-12T14:07:34.468Z,4.70
2023-01-12T14:12:58.893Z,6.10
2023-01-12T14:18:16.640Z,5.80
2023-01-12T14:23:28.171Z,6.30
2023-01-12T14:28:31.788Z,6.00
2023-01-12T14:33:37.654Z,5.70
2023-01-12T14:38:42.500Z,6.10
2023-01-12T14:44:04.855Z,5.40
2023-01-12T14:49:28.952Z,5.60
2023-01-12T14:54:33.914Z,6.40
2023-01-12T14:59:44.469Z,4.70
2023-01-12T15:05:05.214Z,6.10
2023-01-12T15:10:10.719Z,6.30
2023-01-12T15:15:22.399Z,4.50
2023-01-12T15:20:50.592Z,6.40
2023-01-12T15:25:53.477Z,5.70
2023-01-12T15:30:56.296Z,4.90
2023-01-12T15:35:59.058Z,6.30
2023-01-12T15:41:01.801Z,5.00
2023-01-12T15:46:04.671Z,6.00
2023-01-12T15:51:14.262Z,5.40
2023-01-12T15:56:17.063Z,6.50
2023-01-12T16:01:20.435Z,5.00
2023-01-12T16:06:30.153Z,5.30
2023-01-12T16:11:32.896Z,5.60
2023-01-12T16:16:36.425Z,4.20
2023-01-12T16:21:39.153Z,5.60
2023-01-12T16:26:42.986Z,5.00
2023-01-12T16:31:45.789Z,5.80
2023-01-12T16:36:48.692Z,5.50
2023-01-12T16:41:53.384Z,4.90
2023-01-12T16:46:56.120Z,5.40
2023-01-12T16:51:59.960Z,5.10
2023-01-12T16:57:03.297Z,4.30
2023-01-12T17:02:08.419Z,4.50
2023-01-12T17:07:11.930Z,4.20
2023-01-12T17:12:14.855Z,4.10
2023-01-12T17:17:17.838Z,3.80
2023-01-12T17:22:20.767Z,4.30
2023-01-12T17:27:24.084Z,4.60
2023-01-12T17:32:26.822Z,5.20
2023-01-12T17:37:29.492Z,4.00
2023-01-12T17:42:50.595Z,3.20
2023-01-12T17:47:53.420Z,4.90
2023-01-12T17:52:56.320Z,4.90
2023-01-12T17:57:59.121Z,3.90
2023-01-12T18:03:03.104Z,4.30
2023-01-12T18:08:06.051Z,4.40
2023-01-12T18:13:08.853Z,3.50
2023-01-12T18:18:11.655Z,4.00
2023-01-12T18:23:14.791Z,4.20
2023-01-12T18:28:17.592Z,4.00
2023-01-12T18:33:20.367Z,4.20
2023-01-12T18:38:28.928Z,4.50
2023-01-12T18:43:31.711Z,4.40
2023-01-12T18:48:34.450Z,4.00
2023-01-12T18:53:37.517Z,4.50
2023-01-12T18:58:42.926Z,4.40
2023-01-12T19:03:45.788Z,3.30
2023-01-12T19:09:08.829Z,3.30
2023-01-12T19:14:30.095Z,4.20
2023-01-12T19:19:34.431Z,4.10
2023-01-12T19:24:55.771Z,3.80
2023-01-12T19:29:58.532Z,4.00
2023-01-12T19:35:10.233Z,4.50
2023-01-12T19:40:20.264Z,4.60
2023-01-12T19:45:23.470Z,3.80
2023-01-12T19:50:26.271Z,4.30
2023-01-12T19:55:30.509Z,4.70
2023-01-12T20:00:33.205Z,4.30
2023-01-12T20:05:40.825Z,5.00
2023-01-12T20:10:44.554Z,4.90
2023-01-12T20:15:48.793Z,4.90
2023-01-12T20:20:53.247Z,4.40
2023-01-12T20:25:56.128Z,4.20
2023-01-12T20:30:59.470Z,4.40
2023-01-12T20:36:02.775Z,4.40
2023-01-12T20:41:06.183Z,3.80
2023-01-12T20:46:14.128Z,5.50
2023-01-12T20:51:17.217Z,6.30
2023-01-12T20:56:21.309Z,4.80
2023-01-12T21:01:25.525Z,4.70
2023-01-12T21:06:28.273Z,4.00
2023-01-12T21:11:31.061Z,4.50
2023-01-12T21:16:34.095Z,6.30
2023-01-12T21:21:36.979Z,4.60
2023-01-12T21:26:39.671Z,4.50
2023-01-12T21:31:42.604Z,4.10
2023-01-12T21:36:45.751Z,5.00
2023-01-12T21:42:07.095Z,4.70
2023-01-12T21:47:09.978Z,4.90
2023-01-12T21:52:13.367Z,5.00
2023-01-12T21:57:16.122Z,3.90
2023-01-12T22:02:18.867Z,4.40
2023-01-12T22:07:25.501Z,4.10
2023-01-12T22:12:28.232Z,4.30
2023-01-12T22:17:31.034Z,4.50
2023-01-12T22:22:33.765Z,4.80
2023-01-12T22:27:37.355Z,5.20
2023-01-12T22:32:41.517Z,4.70
2023-01-12T22:37:44.294Z,4.40
2023-01-12T22:43:05.873Z,4.80
2023-01-12T22:48:08.737Z,4.00
2023-01-12T22:53:11.745Z,4.90
2023-01-12T22:58:14.523Z,4.30
2023-01-12T23:03:17.915Z,4.80
2023-01-12T23:08:20.776Z,4.30
2023-01-12T23:13:23.669Z,3.70
2023-01-12T23:18:29.447Z,4.80
2023-01-12T23:23:32.348Z,3.90
2023-01-12T23:28:39.145Z,4.20
2023-01-12T23:33:45.528Z,5.30
2023-01-12T23:38:53.454Z,5.40
2023-01-12T23:43:59.467Z,4.90
2023-01-12T23:49:03.163Z,4.20
2023-01-12T23:54:07.786Z,5.60
2023-01-12T23:59:10.591Z,5.80
